Weather History for KJYM - October, 2011

Change the Weather History Date:

Friday, October 14, 2011

  Actual Average Record
Temperature  
Mean Temperature 55 °F -  
Max Temperature 57 °F 61 °F 82 °F (1975)
Min Temperature 53 °F 39 °F 26 °F (1987)
Degree Days  
Heating Degree Days 10    
Growing Degree Days 5 (Base 50)    
Moisture  
Dew Point 49 °F    
Average Humidity 82    
Maximum Humidity 100    
Minimum Humidity 51    
Precipitation  
Precipitation 0.00 in - - ()
Sea Level Pressure  
Sea Level Pressure 29.45 in    
Wind  
Wind Speed 13 mph (West)    
Max Wind Speed 24 mph    
Max Gust Speed 33 mph    
Visibility 9 miles    
Events Rain    
Averages and records for this station are not official NWS values.
T = Trace of Precipitation, MM = Missing Value Source: NWS Daily Summary

Daily Weather History Graph

Daily Weather History Graph

Search for Another Location

Airport or City:

Trip Planner

Search our weather history database for the weather conditions in past years. The results will help you decide how hot, cold, wet, or windy it might be!

Date:

Astronomy

Oct. 14, 2011 Rise Set
Actual Time 7:49 AM EDT 6:58 PM EDT
Civil Twilight 7:21 AM EDT 7:26 PM EDT
Nautical Twilight 6:48 AM EDT 7:59 PM EDT
Astronomical Twilight 6:16 AM EDT 8:31 PM EDT
Moon 8:08 PM EDT (10/14) 10:20 AM EDT (10/14)
Length of Visible Light 12h 05m
Length of Day
11h 09m
Waning Gibbous, 94% of the Moon is Illuminated
Oct 14
Waning Gibbous
Oct 19
Last Quarter
Oct 26
New
Nov 2
First Quarter
Nov 10
Full

Hourly Weather History & Observations

Time (EDT) Temp. Windchill Dew Point Humidity Pressure Visibility Wind Dir Wind Speed Gust Speed Precip Events Conditions
12:14 AM 57.2 °F - 57.2 °F 100% 29.40 in 3.0 mi SW 6.9 mph - N/A Rain Rain
12:35 AM 57.2 °F - 57.2 °F 100% 29.40 in 5.0 mi West 9.2 mph 17.3 mph N/A Rain Rain
12:54 AM 57.2 °F - 55.4 °F 94% 29.41 in 7.0 mi WNW 17.3 mph 23.0 mph N/A   Light Drizzle
1:15 AM 55.4 °F - 53.6 °F 94% 29.41 in 4.0 mi WNW 13.8 mph 23.0 mph N/A   Drizzle
1:34 AM 55.4 °F - 53.6 °F 94% 29.40 in 10.0 mi WNW 13.8 mph - N/A Rain Light Rain
1:54 AM 55.4 °F - 53.6 °F 94% 29.40 in 7.0 mi West 10.4 mph - N/A Rain Light Rain
2:15 AM 55.4 °F - 53.6 °F 94% 29.40 in 10.0 mi West 12.7 mph - N/A   Overcast
2:35 AM 55.4 °F - 53.6 °F 94% 29.40 in 10.0 mi WNW 11.5 mph 18.4 mph N/A   Overcast
2:54 AM 55.4 °F - 53.6 °F 94% 29.40 in 10.0 mi West 11.5 mph - N/A   Mostly Cloudy
3:15 AM 55.4 °F - 53.6 °F 94% 29.40 in 10.0 mi West 10.4 mph - N/A   Overcast
3:34 AM 55.4 °F - 53.6 °F 94% 29.40 in 10.0 mi West 8.1 mph - N/A   Overcast
3:54 AM 55.4 °F - 53.6 °F 94% 29.40 in 10.0 mi West 12.7 mph - N/A   Overcast
4:15 AM 55.4 °F - 53.6 °F 94% 29.40 in 10.0 mi West 15.0 mph 21.9 mph N/A   Overcast
4:34 AM 55.4 °F - 53.6 °F 94% 29.40 in 5.0 mi West 11.5 mph 17.3 mph N/A Rain Light Rain
4:54 AM 55.4 °F - 53.6 °F 94% 29.40 in 5.0 mi West 12.7 mph 21.9 mph N/A Rain Light Rain
5:15 AM 53.6 °F - 51.8 °F 94% 29.41 in 5.0 mi West 13.8 mph 18.4 mph N/A Rain Light Rain
5:34 AM 53.6 °F - 51.8 °F 94% 29.41 in 7.0 mi West 10.4 mph 18.4 mph N/A   Overcast
5:54 AM 53.6 °F - 51.8 °F 94% 29.41 in 7.0 mi West 11.5 mph - N/A   Overcast
6:15 AM 53.6 °F - 51.8 °F 94% 29.41 in 7.0 mi West 9.2 mph - N/A   Overcast
6:34 AM 53.6 °F - 51.8 °F 94% 29.41 in 7.0 mi WSW 10.4 mph 16.1 mph N/A   Overcast
6:54 AM 53.6 °F - 51.8 °F 94% 29.42 in 7.0 mi West 13.8 mph 21.9 mph N/A   Overcast
7:15 AM 53.6 °F - 51.8 °F 94% 29.42 in 10.0 mi West 12.7 mph 20.7 mph N/A   Overcast
7:34 AM 53.6 °F - 51.8 °F 94% 29.42 in 10.0 mi WSW 11.5 mph 18.4 mph N/A   Overcast
7:55 AM 53.6 °F - 51.8 °F 94% 29.43 in 10.0 mi WSW 10.4 mph - N/A   Overcast
8:15 AM 53.6 °F - 51.8 °F 94% 29.43 in 10.0 mi WSW 12.7 mph 17.3 mph N/A   Overcast
8:34 AM 53.6 °F - 51.8 °F 94% 29.44 in 10.0 mi WSW 10.4 mph 17.3 mph N/A   Overcast
9:14 AM 53.6 °F - 51.8 °F 94% 29.44 in 10.0 mi WSW 15.0 mph 19.6 mph N/A   Overcast
9:34 AM 53.6 °F - 51.8 °F 94% 29.44 in 7.0 mi West 12.7 mph 17.3 mph N/A Rain Light Rain
9:55 AM 53.6 °F - 50.0 °F 88% 29.45 in 10.0 mi WSW 10.4 mph 19.6 mph N/A   Overcast
10:14 AM 53.6 °F - 48.2 °F 82% 29.46 in 10.0 mi West 17.3 mph 25.3 mph N/A   Overcast
10:35 AM 53.6 °F - 48.2 °F 82% 29.46 in 10.0 mi West 12.7 mph 25.3 mph N/A   Overcast
10:54 AM 53.6 °F - 48.2 °F 82% 29.47 in 10.0 mi West 12.7 mph 24.2 mph N/A   Overcast
11:14 AM 53.6 °F - 48.2 °F 82% 29.47 in 10.0 mi West 11.5 mph 18.4 mph N/A   Overcast
11:35 AM 53.6 °F - 46.4 °F 77% 29.47 in 10.0 mi WSW 11.5 mph 23.0 mph N/A   Overcast
11:54 AM 53.6 °F - 46.4 °F 77% 29.48 in 10.0 mi West 17.3 mph 26.5 mph N/A   Overcast
12:14 PM 53.6 °F - 44.6 °F 72% 29.48 in 10.0 mi West 16.1 mph 27.6 mph N/A   Overcast
12:35 PM 55.4 °F - 44.6 °F 67% 29.49 in 10.0 mi WSW 18.4 mph 28.8 mph N/A   Overcast
12:54 PM 53.6 °F - 42.8 °F 67% 29.50 in 10.0 mi West 20.7 mph 27.6 mph N/A   Overcast
1:14 PM 55.4 °F - 42.8 °F 63% 29.50 in 10.0 mi West 17.3 mph 27.6 mph N/A   Overcast
1:35 PM 55.4 °F - 42.8 °F 63% 29.50 in 10.0 mi West 18.4 mph 28.8 mph N/A   Overcast
1:54 PM 55.4 °F - 41.0 °F 58% 29.50 in 10.0 mi West 24.2 mph 32.2 mph N/A   Overcast
2:15 PM 55.4 °F - 41.0 °F 58% 29.51 in 10.0 mi West 20.7 mph 27.6 mph N/A   Overcast
2:34 PM 55.4 °F - 42.8 °F 63% 29.51 in 10.0 mi West 19.6 mph 26.5 mph N/A   Overcast
2:54 PM 55.4 °F - 39.2 °F 54% 29.51 in 10.0 mi West 23.0 mph 29.9 mph N/A   Overcast
3:15 PM 57.2 °F - 39.2 °F 51% 29.51 in 10.0 mi West 21.9 mph 33.4 mph N/A   Overcast
3:34 PM 57.2 °F - 39.2 °F 51% 29.52 in 10.0 mi West 19.6 mph 29.9 mph N/A   Mostly Cloudy
3:54 PM 55.4 °F - 39.2 °F 54% 29.53 in 10.0 mi West 21.9 mph 29.9 mph N/A   Mostly Cloudy
4:34 PM 55.4 °F - 39.2 °F 54% 29.54 in 10.0 mi West 20.7 mph 28.8 mph N/A   Overcast
4:55 PM 55.4 °F - 39.2 °F 54% 29.54 in 10.0 mi West 13.8 mph 27.6 mph N/A   Mostly Cloudy
5:14 PM 55.4 °F - 39.2 °F 54% 29.54 in 10.0 mi West 13.8 mph 21.9 mph N/A   Mostly Cloudy
5:34 PM 55.4 °F - 37.4 °F 51% 29.54 in 10.0 mi West 16.1 mph 23.0 mph N/A   Mostly Cloudy
5:55 PM 55.4 °F - 39.2 °F 54% 29.55 in 10.0 mi West 18.4 mph 25.3 mph N/A   Overcast
6:14 PM 55.4 °F - 37.4 °F 51% 29.55 in 10.0 mi West 20.7 mph 26.5 mph N/A   Overcast
6:34 PM 55.4 °F - 39.2 °F 54% 29.55 in 10.0 mi West 16.1 mph 21.9 mph N/A   Overcast
6:55 PM 55.4 °F - 39.2 °F 54% 29.56 in 10.0 mi West 16.1 mph 25.3 mph N/A   Overcast
7:14 PM 55.4 °F - 39.2 °F 54% 29.55 in 10.0 mi West 9.2 mph 16.1 mph N/A   Overcast
7:34 PM 53.6 °F - 41.0 °F 62% 29.56 in 10.0 mi West 12.7 mph 18.4 mph N/A   Overcast
7:55 PM 53.6 °F - 41.0 °F 62% 29.56 in 10.0 mi West 9.2 mph - N/A   Overcast
8:14 PM 50.0 °F - 44.6 °F 82% 29.58 in 10.0 mi West 13.8 mph 20.7 mph N/A Rain Light Rain
8:34 PM 48.2 °F - 44.6 °F 87% 29.59 in 10.0 mi West 11.5 mph 18.4 mph N/A Rain Rain
8:54 PM 48.2 °F - 44.6 °F 87% 29.59 in 7.0 mi WSW 10.4 mph 17.3 mph N/A Rain Light Rain
9:14 PM 48.2 °F - 44.6 °F 87% 29.58 in 7.0 mi West 13.8 mph 19.6 mph N/A Rain Light Rain
9:35 PM 48.2 °F - 44.6 °F 87% 29.58 in 7.0 mi West 9.2 mph - N/A Rain Light Rain
9:54 PM 48.2 °F - 44.6 °F 87% 29.58 in 10.0 mi West 12.7 mph - N/A   Overcast
10:14 PM 46.4 °F 41.5 °F 44.6 °F 93% 29.58 in 10.0 mi West 10.4 mph - N/A   Mostly Cloudy
10:35 PM 46.4 °F 42.4 °F 44.6 °F 93% 29.59 in 10.0 mi West 8.1 mph - N/A   Mostly Cloudy
10:54 PM 46.4 °F 42.4 °F 44.6 °F 93% 29.58 in 10.0 mi WSW 8.1 mph - N/A   Scattered Clouds
11:15 PM 46.4 °F 42.4 °F 44.6 °F 93% 29.58 in 10.0 mi West 8.1 mph - N/A   Scattered Clouds
11:34 PM 46.4 °F 42.4 °F 42.8 °F 87% 29.57 in 10.0 mi West 8.1 mph - N/A   Clear
11:54 PM 46.4 °F 42.4 °F 42.8 °F 87% 29.57 in 10.0 mi West 8.1 mph - N/A   Clear